Terminal Aerodrome Forecast
Issued by NWS

Current Version | Previous Version | Text Only | Print | Product List | Glossary On
Versions: 1 2 3 4 5 6 7 8 9 10 11 12 13 14 15 16 17 18
082
FTUS42 KTBW 232344
TAFPIE
TAF
KPIE 232344Z 2400/2424 21007KT 5SM -RA VCTS SCT015CB BKN040 OVC100
      TEMPO 2400/2402 1SM +RA BKN015
     FM240200 24006KT P6SM -RA SCT020 BKN040 OVC100
     FM240600 26005KT P6SM VCSH BKN025 OVC050
     FM241100 34007KT P6SM SCT020 BKN050 BKN100
     FM241800 32012KT P6SM FEW050 SCT250=

USA.gov is the U.S. government's official web portal to all federal, state and local government web resources and services.